createdAt,value
2018-11-27T00:00:50.189Z,93525.56
2018-11-27T00:15:52.564Z,93540.13
2018-11-27T00:30:50.931Z,93544.36
2018-11-27T00:45:52.808Z,93563.20
2018-11-27T01:00:51.215Z,93572.19
2018-11-27T01:15:52.663Z,93560.69
2018-11-27T01:30:52.664Z,93563.13
2018-11-27T01:45:54.004Z,93553.93
2018-11-27T02:00:50.957Z,93552.87
2018-11-27T02:15:52.843Z,93540.69
2018-11-27T02:30:50.767Z,93529.57
2018-11-27T02:45:53.212Z,93548.94
2018-11-27T03:00:53.139Z,93549.03
2018-11-27T03:15:51.554Z,93551.91
2018-11-27T03:30:51.013Z,93558.17
2018-11-27T03:45:51.354Z,93534.40
2018-11-27T04:00:53.305Z,93540.50
2018-11-27T04:15:52.846Z,93551.06
2018-11-27T04:30:51.396Z,93572.03
2018-11-27T04:45:50.681Z,93577.52
2018-11-27T05:00:51.599Z,93578.20
2018-11-27T05:15:52.591Z,93578.11
2018-11-27T05:30:50.374Z,93569.64
2018-11-27T05:45:51.311Z,93573.11
2018-11-27T06:00:50.860Z,93571.34
2018-11-27T06:15:50.665Z,93586.97
2018-11-27T06:30:50.935Z,93582.81
2018-11-27T06:45:53.040Z,93599.55
2018-11-27T07:00:51.502Z,93574.13
2018-11-27T07:15:54.031Z,93561.70
2018-11-27T07:30:52.917Z,93560.67
2018-11-27T07:45:55.183Z,93563.97
2018-11-27T08:00:53.208Z,93583.89
2018-11-27T08:15:51.106Z,93576.37
2018-11-27T08:30:51.118Z,93573.94
2018-11-27T08:45:50.380Z,93571.02
2018-11-27T09:00:50.201Z,93568.78
2018-11-27T09:15:51.288Z,93541.52
2018-11-27T09:30:51.234Z,93533.28
2018-11-27T09:45:50.746Z,93528.51
2018-11-27T10:00:50.519Z,93540.48
2018-11-27T10:15:50.901Z,93520.77
2018-11-27T10:30:50.452Z,93517.27
2018-11-27T10:45:49.790Z,93522.86
2018-11-27T11:00:55.459Z,93506.78
2018-11-27T11:15:50.194Z,93505.92
2018-11-27T11:30:50.637Z,93496.67
2018-11-27T11:45:51.991Z,93502.27
2018-11-27T12:00:52.147Z,93492.84
2018-11-27T12:15:51.840Z,93495.46
2018-11-27T12:30:50.749Z,93487.47
2018-11-27T12:45:51.195Z,93475.20
2018-11-27T13:00:51.204Z,93470.49
2018-11-27T13:15:51.568Z,93456.86
2018-11-27T13:30:55.392Z,93472.66
2018-11-27T13:45:50.732Z,93477.28
2018-11-27T14:00:52.749Z,93488.45
2018-11-27T14:15:51.323Z,93486.25
2018-11-27T14:30:51.348Z,93475.98
2018-11-27T14:45:52.606Z,93473.70
2018-11-27T15:00:50.539Z,93489.36
2018-11-27T15:15:50.480Z,93483.97
2018-11-27T15:30:50.469Z,93476.73
2018-11-27T15:45:50.840Z,93490.40
2018-11-27T16:00:52.912Z,93494.25
2018-11-27T16:15:52.878Z,93488.48
2018-11-27T16:30:53.458Z,93489.41
2018-11-27T17:00:54.141Z,93485.91
2018-11-27T17:45:52.661Z,93484.31
2018-11-27T18:00:51.440Z,93475.81
2018-11-27T18:15:51.234Z,93479.20
2018-11-27T18:30:54.346Z,93480.33
2018-11-27T18:45:50.628Z,93483.16
2018-11-27T19:00:51.441Z,93510.78
2018-11-27T19:15:52.537Z,93519.80
2018-11-27T19:30:52.741Z,93515.50
2018-11-27T20:00:56.288Z,93510.78
2018-11-27T20:30:55.492Z,93519.58
2018-11-27T20:45:57.184Z,93544.57
2018-11-27T21:30:54.296Z,93572.97
2018-11-27T21:45:59.250Z,93572.59
2018-11-27T22:00:53.529Z,93585.58
2018-11-27T22:15:57.045Z,93594.89
2018-11-27T22:30:52.839Z,93601.46
2018-11-27T22:45:50.683Z,93607.88
2018-11-27T23:00:52.595Z,93617.88
2018-11-27T23:15:51.373Z,93606.80
2018-11-27T23:30:53.224Z,93597.31
2018-11-27T23:45:51.631Z,93589.77
